Terminal Aerodrome Forecast
Issued by NWS Sioux Falls, SD

Home | Current Version | Previous Version | Text Only | Print | Product List | Glossary On
Versions: 1 2 3 4 5 6 7 8 9 10 11 12 13 14 15 16 17
709
FTUS43 KFSD 081830
TAFHON
TAF
KHON 081830Z 0818/0918 32016G24KT P6SM FEW020 BKN060
     FM082100 32014KT P6SM FEW015 BKN150
     FM090100 31009KT P6SM SCT200
     FM090800 32005KT P6SM FEW250
     FM091700 00000KT P6SM BKN080=

USA.gov is the U.S. government's official web portal to all federal, state and local government web resources and services.